Pays
Station

 

Conditions  météo  pour  Kuusamo  -  Finlande    Finlande

  
14 °C
    
 
 

METAR pour Kuusamo :

EFKS 161950Z AUTO 15006KT CAVOK 14/11 Q1015

 

Voici le bulletin pour Kuusamo - Finlande.
 
Le bulletin a été fait il y a 15 minutes, à 19:50 UTC .
Le vent soufflait à la vitesse de 3.1 mètres par seconde de Sud/Sud-est (150°).
 
La température était de 14 °C, avec un point de rosée à 11 °C.
La pression atmosphérique était de 1015 hPa.
L'humidité relative était de 82.1%.
 
Il y avait pas de nuages en-dessous de 1500 mètres et pas de cumulonimbus.
 
La visibilité globale était de supérieure à 10 kilomètres.
 

 
 
 

Pays :   A   B   C   D   E   F   G   H   I   J   K   L   M   N   O   P   Q   R   S   T   U   V   W   Y   Z

 

Partenaires :  Info Météo avec Met'info
Météo Marine avec MeteoMarine.net
Infos Site  |  Infos Légales  |  Crédits  |  Confidentialité
Contactez-nous  |  Ajouter aux favoris
© 2013-2018 METAR - Tous droits réservés